Time;durP1;ratioP1;P1;durP2;ratioP2;P2;SDS_P1;SDS_P2;PMS_P1;PMS_P2;Temp;Humidity;BMP_temperature;BMP_pressure;BME280_temperature;BME280_humidity;BME280_pressure;Samples;Min_cycle;Max_cycle;Signal;HPM_P1;HPM_P2
2022/12/28 00:00:54;;;;;;;94.45;38.70;;;7.00;99.90;;;;;;5012373;28;20033;-77
2022/12/28 00:03:20;;;;;;;103.05;41.33;;;6.90;99.90;;;;;;4996755;28;20034;-77
2022/12/28 00:05:46;;;;;;;81.13;39.28;;;6.90;99.90;;;;;;5005232;28;20027;-77
2022/12/28 00:08:12;;;;;;;114.50;48.28;;;6.90;99.90;;;;;;4996361;28;20053;-77
2022/12/28 00:10:37;;;;;;;123.10;47.30;;;6.80;99.90;;;;;;5007564;28;20495;-77
2022/12/28 00:13:03;;;;;;;76.07;41.22;;;6.70;99.90;;;;;;5014185;28;20026;-77
2022/12/28 00:15:29;;;;;;;109.15;46.20;;;6.70;99.90;;;;;;4994651;28;20041;-78
2022/12/28 00:17:57;;;;;;;111.68;43.92;;;6.70;99.90;;;;;;4996635;28;20038;-77
2022/12/28 00:20:22;;;;;;;117.47;50.03;;;6.70;99.90;;;;;;4993505;28;20076;-77
2022/12/28 00:22:48;;;;;;;118.28;48.13;;;6.50;99.90;;;;;;4997191;28;20014;-77
2022/12/28 00:25:14;;;;;;;77.10;41.40;;;6.50;99.90;;;;;;5007856;28;20114;-77
2022/12/28 00:27:40;;;;;;;110.28;48.83;;;6.50;99.90;;;;;;5003489;28;20036;-77
2022/12/28 00:30:06;;;;;;;79.13;43.67;;;6.50;99.90;;;;;;5009771;28;20038;-77
2022/12/28 00:32:32;;;;;;;93.75;41.63;;;6.40;99.90;;;;;;5007229;28;20050;-77
2022/12/28 00:34:58;;;;;;;86.35;36.10;;;6.30;99.90;;;;;;4993036;28;20062;-77
2022/12/28 00:37:24;;;;;;;55.13;35.58;;;6.40;99.90;;;;;;4996874;28;20021;-77
2022/12/28 00:39:49;;;;;;;53.60;33.67;;;6.40;99.90;;;;;;4993222;28;20038;-77
2022/12/28 00:42:15;;;;;;;51.83;32.22;;;6.40;99.90;;;;;;5013996;28;20076;-77
2022/12/28 00:44:41;;;;;;;53.03;34.17;;;6.40;99.90;;;;;;5011744;28;20065;-77
2022/12/28 00:47:07;;;;;;;52.35;34.47;;;6.40;99.90;;;;;;5016132;28;20022;-77
2022/12/28 00:49:33;;;;;;;55.88;35.88;;;6.50;99.90;;;;;;4994058;28;20038;-77
2022/12/28 00:51:59;;;;;;;57.25;34.55;;;6.50;99.90;;;;;;5008960;28;20083;-77
2022/12/28 00:54:24;;;;;;;63.00;35.30;;;6.40;99.90;;;;;;4995266;28;20060;-77
2022/12/28 00:56:50;;;;;;;56.78;36.85;;;6.40;99.90;;;;;;4994075;28;20034;-77
2022/12/28 00:59:16;;;;;;;59.55;33.88;;;6.50;99.90;;;;;;4996218;28;20034;-77
2022/12/28 01:01:42;;;;;;;64.57;37.78;;;6.50;99.90;;;;;;4994796;28;20518;-77
2022/12/28 01:04:08;;;;;;;55.97;32.50;;;6.50;99.90;;;;;;5015141;28;20038;-76
2022/12/28 01:06:33;;;;;;;51.92;30.60;;;6.50;99.90;;;;;;4989577;28;20026;-77
2022/12/28 01:08:59;;;;;;;63.95;37.85;;;6.60;99.90;;;;;;4997545;28;20037;-78
2022/12/28 01:11:28;;;;;;;50.50;31.55;;;6.60;99.90;;;;;;5003870;28;20113;-78
2022/12/28 01:13:56;;;;;;;54.63;32.85;;;6.70;99.90;;;;;;4998316;28;20026;-77
2022/12/28 01:16:24;;;;;;;45.80;31.10;;;6.70;99.90;;;;;;5014770;28;20022;-77
2022/12/28 01:18:53;;;;;;;46.90;29.17;;;6.70;99.90;;;;;;5015985;28;20022;-77
2022/12/28 01:21:22;;;;;;;47.47;30.00;;;6.70;99.90;;;;;;4998879;28;20022;-77
2022/12/28 01:23:51;;;;;;;39.45;26.73;;;6.80;99.90;;;;;;5016510;28;20010;-77
2022/12/28 01:26:17;;;;;;;44.42;28.20;;;6.90;99.90;;;;;;4983989;28;20156;-77
2022/12/28 01:28:43;;;;;;;46.95;27.83;;;6.90;99.90;;;;;;4997238;28;20062;-77
2022/12/28 01:31:12;;;;;;;37.33;24.38;;;6.80;99.90;;;;;;4990581;28;20026;-77
2022/12/28 01:33:38;;;;;;;38.80;25.38;;;6.80;99.90;;;;;;4986792;28;20037;-77
2022/12/28 01:36:12;;;;;;;37.17;23.88;;;6.80;99.90;;;;;;4970823;28;20364;-77
2022/12/28 01:38:38;;;;;;;41.03;25.60;;;6.90;99.90;;;;;;4997265;28;20034;-78
2022/12/28 01:41:13;;;;;;;44.38;24.30;;;7.00;99.90;;;;;;4990041;28;20098;-78
2022/12/28 01:43:42;;;;;;;39.53;24.48;;;7.00;99.90;;;;;;4979343;28;20109;-77
2022/12/28 01:46:13;;;;;;;37.05;25.45;;;7.00;99.90;;;;;;4990795;28;20061;-77
2022/12/28 01:48:58;;;;;;;38.05;23.67;;;7.10;99.90;;;;;;4979526;28;20026;-77
2022/12/28 01:51:28;;;;;;;38.45;23.17;;;7.10;99.90;;;;;;4992082;28;20380;-77
2022/12/28 01:53:58;;;;;;;33.65;23.63;;;7.10;99.90;;;;;;4995809;28;20109;-77
2022/12/28 01:56:24;;;;;;;34.40;22.92;;;7.10;99.90;;;;;;4992127;28;20065;-77
2022/12/28 01:58:50;;;;;;;30.50;20.75;;;7.10;99.90;;;;;;4995778;28;20041;-77
2022/12/28 02:01:16;;;;;;;32.13;22.45;;;7.10;99.90;;;;;;4981275;28;20142;-77
2022/12/28 02:03:42;;;;;;;30.80;21.33;;;7.10;99.90;;;;;;4996052;28;20018;-77
2022/12/28 02:06:11;;;;;;;34.03;20.67;;;7.10;99.90;;;;;;4981875;28;20019;-77
2022/12/28 02:09:14;;;;;;;30.63;20.85;;;7.10;99.90;;;;;;4980105;28;20081;-77
2022/12/28 02:11:40;;;;;;;28.42;20.55;;;7.20;99.90;;;;;;4989745;28;20037;-78
2022/12/28 02:14:07;;;;;;;31.85;20.92;;;7.20;99.90;;;;;;4998340;28;20026;-77
2022/12/28 02:16:33;;;;;;;29.90;20.40;;;7.20;99.90;;;;;;4974145;28;20026;-77
2022/12/28 02:18:58;;;;;;;28.77;18.63;;;7.20;99.90;;;;;;4998928;28;20030;-77
2022/12/28 02:21:44;;;;;;;28.50;19.80;;;7.20;99.90;;;;;;4983323;28;20038;-78
2022/12/28 02:24:48;;;;;;;25.48;18.75;;;7.10;99.90;;;;;;4974753;28;20027;-77
2022/12/28 02:27:23;;;;;;;27.38;19.30;;;7.00;99.90;;;;;;4947266;28;20051;-77
2022/12/28 02:30:01;;;;;;;24.63;18.88;;;7.00;99.90;;;;;;4982567;28;20398;-77
2022/12/28 02:32:36;;;;;;;27.15;19.70;;;7.00;99.90;;;;;;4994655;28;20036;-78
2022/12/28 02:35:23;;;;;;;28.10;18.20;;;6.90;99.90;;;;;;4992294;28;20052;-77
2022/12/28 02:38:09;;;;;;;23.75;17.95;;;6.90;99.90;;;;;;4995281;28;20023;-77
2022/12/28 02:40:39;;;;;;;20.98;17.10;;;6.80;99.90;;;;;;4989134;28;20516;-77
2022/12/28 02:43:05;;;;;;;24.05;16.95;;;6.70;99.90;;;;;;4998826;28;20378;-78
2022/12/28 02:51:20;;;;;;;25.40;17.27;;;6.60;99.90;;;;;;4991251;28;20394;-76
2022/12/28 02:53:58;;;;;;;24.10;16.95;;;6.50;99.90;;;;;;4997502;28;20494;-77
2022/12/28 02:56:32;;;;;;;20.50;16.58;;;6.50;99.90;;;;;;4991718;28;20402;-77
2022/12/28 02:59:20;;;;;;;21.42;15.63;;;6.40;99.90;;;;;;4997740;28;20026;-77
2022/12/28 03:02:12;;;;;;;20.67;15.23;;;6.40;99.90;;;;;;4984094;28;20100;-77
2022/12/28 03:05:03;;;;;;;20.00;14.85;;;6.40;99.90;;;;;;4995086;28;20025;-77
2022/12/28 03:11:03;;;;;;;21.73;15.63;;;6.30;99.90;;;;;;4984801;28;20034;-77
2022/12/28 03:13:43;;;;;;;20.38;15.27;;;6.20;99.90;;;;;;4972635;28;20042;-76
2022/12/28 03:33:08;;;;;;;23.40;15.73;;;6.20;99.90;;;;;;5000283;28;20033;-77
2022/12/28 03:36:03;;;;;;;22.48;15.95;;;6.20;99.90;;;;;;5006738;28;20121;-77
2022/12/28 03:38:48;;;;;;;24.90;16.77;;;6.20;99.90;;;;;;4982036;28;20155;-77
2022/12/28 03:41:26;;;;;;;23.17;15.88;;;6.20;99.90;;;;;;5009284;28;20026;-77
2022/12/28 03:43:58;;;;;;;19.35;15.05;;;6.10;99.90;;;;;;5013724;28;20028;-77
2022/12/28 03:46:30;;;;;;;20.60;15.68;;;6.10;99.90;;;;;;5013277;28;20076;-77
2022/12/28 03:49:00;;;;;;;21.67;15.85;;;6.10;99.90;;;;;;5017443;28;20490;-77
2022/12/28 03:51:29;;;;;;;24.47;15.43;;;6.00;99.90;;;;;;4992689;28;20030;-77
2022/12/28 03:53:55;;;;;;;22.88;16.77;;;6.00;99.90;;;;;;4998029;28;20033;-77
2022/12/28 03:56:23;;;;;;;23.13;15.80;;;6.00;99.90;;;;;;5009306;28;20093;-77
2022/12/28 03:58:51;;;;;;;22.95;15.80;;;6.00;99.90;;;;;;5016622;28;20025;-76
2022/12/28 04:01:18;;;;;;;22.80;15.15;;;6.00;99.90;;;;;;5000353;28;20038;-76
2022/12/28 04:03:45;;;;;;;22.85;15.63;;;5.90;99.90;;;;;;4999849;28;20395;-76
2022/12/28 04:06:16;;;;;;;22.08;15.98;;;5.90;99.90;;;;;;4994283;28;20505;-77
2022/12/28 04:08:43;;;;;;;21.77;14.65;;;5.90;99.90;;;;;;5017827;28;20030;-77
2022/12/28 04:11:10;;;;;;;20.67;15.35;;;5.90;99.90;;;;;;4995118;28;20113;-77
2022/12/28 04:13:36;;;;;;;21.00;15.25;;;5.90;99.90;;;;;;5000425;28;20398;-77
2022/12/28 04:16:11;;;;;;;20.85;15.10;;;5.90;99.90;;;;;;5006758;28;20030;-77
2022/12/28 04:18:37;;;;;;;27.08;15.52;;;5.90;99.90;;;;;;5018084;28;20501;-76
2022/12/28 04:21:03;;;;;;;23.63;14.80;;;5.90;99.90;;;;;;5002672;28;20026;-76
2022/12/28 04:23:31;;;;;;;19.23;13.75;;;5.90;99.90;;;;;;5006832;28;20029;-77
2022/12/28 04:26:01;;;;;;;22.63;13.15;;;5.80;99.90;;;;;;5004336;28;20503;-77
2022/12/28 04:28:28;;;;;;;19.35;14.52;;;5.80;99.90;;;;;;5007119;28;20386;-77
2022/12/28 04:30:54;;;;;;;19.63;14.15;;;5.80;99.90;;;;;;5009593;28;20057;-77
2022/12/28 04:33:20;;;;;;;19.15;13.70;;;5.80;99.90;;;;;;5007580;28;20080;-77
2022/12/28 04:35:46;;;;;;;21.92;14.63;;;5.80;99.90;;;;;;5008953;28;20030;-77
2022/12/28 04:38:12;;;;;;;21.40;14.20;;;5.70;99.90;;;;;;4999840;28;20520;-77
2022/12/28 04:40:38;;;;;;;24.15;16.02;;;5.70;99.90;;;;;;4993132;28;20185;-74
2022/12/28 04:43:03;;;;;;;22.55;14.10;;;5.70;99.90;;;;;;5010061;28;20022;-76
2022/12/28 04:45:29;;;;;;;20.85;14.80;;;5.70;99.90;;;;;;4993217;28;20066;-77
2022/12/28 04:47:56;;;;;;;22.85;14.73;;;5.60;99.90;;;;;;4999725;28;20426;-77
2022/12/28 04:50:23;;;;;;;23.98;15.52;;;5.60;99.90;;;;;;4993015;28;20022;-77
2022/12/28 04:52:49;;;;;;;21.63;14.40;;;5.60;99.90;;;;;;5012402;28;20100;-76
2022/12/28 04:55:15;;;;;;;28.02;15.10;;;5.60;99.90;;;;;;5011214;28;20116;-77
2022/12/28 04:57:43;;;;;;;20.75;14.80;;;5.50;99.90;;;;;;4999677;28;20021;-77
2022/12/28 05:00:09;;;;;;;21.98;16.25;;;5.50;99.90;;;;;;5010031;28;20389;-77
2022/12/28 05:02:35;;;;;;;22.00;14.40;;;5.50;99.90;;;;;;5007514;28;20018;-77
2022/12/28 05:05:01;;;;;;;20.75;14.88;;;5.50;99.90;;;;;;5011873;28;20030;-76
2022/12/28 05:07:27;;;;;;;20.80;15.07;;;5.50;99.90;;;;;;4986668;28;20018;-76
2022/12/28 05:09:53;;;;;;;24.08;14.77;;;5.50;99.90;;;;;;5011175;28;20034;-76
2022/12/28 05:12:20;;;;;;;17.83;14.05;;;5.60;99.90;;;;;;5007640;28;20080;-76
2022/12/28 05:14:46;;;;;;;17.60;13.23;;;5.50;99.90;;;;;;5014646;28;20065;-77
2022/12/28 05:17:12;;;;;;;21.35;13.30;;;5.50;99.90;;;;;;4999110;28;20077;-76
2022/12/28 05:19:38;;;;;;;20.00;14.18;;;5.50;99.90;;;;;;4994918;28;20040;-76
2022/12/28 05:22:04;;;;;;;20.25;13.80;;;5.50;99.90;;;;;;4998732;28;20026;-77
2022/12/28 05:24:29;;;;;;;18.45;13.77;;;5.50;99.90;;;;;;4993488;28;20105;-76
2022/12/28 05:26:55;;;;;;;19.17;14.80;;;5.50;99.90;;;;;;4980065;28;20086;-77
2022/12/28 05:29:21;;;;;;;100.30;75.25;;;5.40;99.90;;;;;;4990908;28;20026;-77
2022/12/28 05:31:47;;;;;;;27.55;21.20;;;5.40;99.90;;;;;;4986142;28;20027;-77
2022/12/28 05:34:13;;;;;;;25.67;17.15;;;5.40;99.90;;;;;;4974410;28;20100;-77
2022/12/28 05:36:39;;;;;;;22.08;14.98;;;5.40;99.90;;;;;;4968658;28;20106;-77
2022/12/28 05:39:05;;;;;;;28.10;14.90;;;5.40;99.90;;;;;;4991780;28;20542;-77
2022/12/28 05:41:31;;;;;;;26.25;16.10;;;5.40;99.90;;;;;;4969624;28;20115;-76
2022/12/28 05:43:58;;;;;;;23.65;15.10;;;5.40;99.90;;;;;;4994179;28;20074;-76
2022/12/28 05:46:30;;;;;;;21.63;15.43;;;5.30;99.90;;;;;;4983310;28;20519;-77
2022/12/28 05:48:56;;;;;;;20.42;15.30;;;5.30;99.90;;;;;;4999856;28;20034;-77
2022/12/28 05:51:25;;;;;;;18.35;14.88;;;5.30;99.90;;;;;;4992307;28;20073;-76
2022/12/28 05:53:50;;;;;;;20.10;14.57;;;5.30;99.90;;;;;;4980928;28;20027;-77
2022/12/28 05:56:20;;;;;;;20.98;14.48;;;5.20;99.90;;;;;;4991937;28;20509;-76
2022/12/28 05:58:51;;;;;;;23.10;15.93;;;5.20;99.90;;;;;;4998577;28;20494;-74
2022/12/28 06:01:20;;;;;;;24.27;15.50;;;5.20;99.90;;;;;;4971459;28;20031;-76
2022/12/28 06:03:47;;;;;;;22.90;14.90;;;5.20;99.90;;;;;;5000405;28;20146;-76
2022/12/28 06:06:16;;;;;;;20.58;14.27;;;5.10;99.90;;;;;;4985985;28;20411;-77
2022/12/28 06:08:43;;;;;;;23.60;15.75;;;5.10;99.90;;;;;;5000329;28;20022;-77
2022/12/28 06:11:11;;;;;;;25.88;15.27;;;5.10;99.90;;;;;;4978054;28;20038;-77
2022/12/28 06:13:38;;;;;;;24.65;15.45;;;5.10;99.90;;;;;;4971054;28;20030;-74
2022/12/28 06:16:08;;;;;;;19.08;14.55;;;5.10;99.90;;;;;;4985402;28;20106;-76
2022/12/28 06:18:34;;;;;;;22.27;15.45;;;5.10;99.90;;;;;;4983133;28;20042;-74
2022/12/28 06:21:13;;;;;;;21.73;16.00;;;5.10;99.90;;;;;;4973023;28;20114;-74
2022/12/28 06:23:39;;;;;;;22.58;15.68;;;5.10;99.90;;;;;;4972984;28;20031;-74
2022/12/28 06:26:07;;;;;;;23.20;15.15;;;5.00;99.90;;;;;;4999376;28;20046;-74
2022/12/28 06:28:35;;;;;;;23.52;15.60;;;5.10;99.90;;;;;;5009811;28;20455;-74
2022/12/28 06:31:21;;;;;;;23.30;16.98;;;5.10;99.90;;;;;;4996516;28;20025;-74
2022/12/28 06:33:49;;;;;;;22.08;16.48;;;5.10;99.90;;;;;;5012422;28;20457;-74
2022/12/28 06:36:17;;;;;;;23.25;15.07;;;5.00;99.90;;;;;;4992447;28;20030;-74
2022/12/28 06:38:43;;;;;;;21.17;15.13;;;5.00;99.90;;;;;;5013166;28;20037;-74
2022/12/28 06:41:11;;;;;;;23.00;15.65;;;5.00;99.90;;;;;;4995487;28;20505;-74
2022/12/28 06:43:39;;;;;;;27.15;17.08;;;5.10;99.90;;;;;;5019564;28;20053;-74
2022/12/28 06:46:05;;;;;;;21.00;15.50;;;5.00;99.90;;;;;;4995427;28;20049;-74
2022/12/28 06:48:33;;;;;;;21.65;15.60;;;5.00;99.90;;;;;;5019528;28;20034;-74
2022/12/28 06:51:04;;;;;;;23.77;15.48;;;5.00;99.90;;;;;;5012752;28;20488;-74
2022/12/28 06:53:32;;;;;;;27.20;18.05;;;5.00;99.90;;;;;;5014133;28;20037;-74
2022/12/28 06:56:10;;;;;;;23.83;15.88;;;5.00;99.90;;;;;;4994718;28;20069;-74
2022/12/28 06:58:37;;;;;;;27.05;17.20;;;5.10;99.90;;;;;;5016040;28;20018;-74
2022/12/28 07:01:12;;;;;;;26.15;16.90;;;5.10;99.90;;;;;;5005365;28;20061;-74
2022/12/28 07:03:38;;;;;;;24.73;16.95;;;5.10;99.90;;;;;;5017749;28;20025;-74
2022/12/28 07:06:05;;;;;;;24.85;17.05;;;5.10;99.90;;;;;;5003837;28;20172;-73
2022/12/28 07:08:32;;;;;;;28.83;17.67;;;5.10;99.90;;;;;;5017994;28;20021;-73
2022/12/28 07:11:06;;;;;;;26.13;16.65;;;5.10;99.90;;;;;;5008051;28;20058;-74
2022/12/28 07:13:32;;;;;;;29.20;18.02;;;5.10;99.90;;;;;;5018909;28;20065;-74
2022/12/28 07:16:02;;;;;;;26.52;17.58;;;5.10;99.90;;;;;;5008442;28;20459;-74
2022/12/28 07:18:27;;;;;;;27.77;17.13;;;5.10;99.90;;;;;;5019035;28;20030;-74
2022/12/28 07:21:10;;;;;;;24.92;16.77;;;5.10;99.90;;;;;;4991932;28;20375;-74
2022/12/28 07:23:36;;;;;;;29.08;17.13;;;5.00;99.90;;;;;;5008448;28;20017;-74
2022/12/28 07:26:06;;;;;;;27.83;17.58;;;5.00;99.90;;;;;;5009901;28;20049;-75
2022/12/28 07:28:34;;;;;;;30.20;18.20;;;5.00;99.90;;;;;;5008798;28;20080;-74
2022/12/28 07:31:06;;;;;;;31.88;18.25;;;5.10;99.90;;;;;;5008975;28;20026;-75
2022/12/28 07:33:34;;;;;;;39.13;20.73;;;5.10;99.90;;;;;;4992660;28;20038;-75
2022/12/28 07:36:00;;;;;;;38.67;19.27;;;5.30;99.90;;;;;;4993022;28;20029;-76
2022/12/28 07:38:26;;;;;;;38.05;20.30;;;5.30;99.90;;;;;;5018059;28;20046;-76
2022/12/28 07:40:52;;;;;;;42.88;20.27;;;5.50;99.90;;;;;;5010776;28;20022;-76
2022/12/28 07:43:18;;;;;;;42.10;19.55;;;5.70;99.90;;;;;;5016891;28;20037;-76
2022/12/28 07:45:43;;;;;;;42.45;22.38;;;5.80;99.90;;;;;;5011748;28;20026;-76
2022/12/28 07:48:09;;;;;;;44.22;21.55;;;5.90;99.90;;;;;;5017816;28;20050;-76
2022/12/28 07:50:35;;;;;;;43.10;20.20;;;6.00;99.90;;;;;;5010511;28;20089;-76
2022/12/28 07:53:01;;;;;;;35.95;20.83;;;6.00;99.90;;;;;;5017843;28;20075;-76
2022/12/28 07:55:30;;;;;;;39.30;21.20;;;6.10;99.90;;;;;;4995696;28;20114;-76
2022/12/28 07:57:55;;;;;;;45.72;22.10;;;6.10;99.90;;;;;;5013848;28;20021;-76
2022/12/28 08:00:21;;;;;;;47.40;21.27;;;6.20;99.90;;;;;;4994307;28;20033;-76
2022/12/28 08:02:47;;;;;;;46.83;22.73;;;6.20;99.90;;;;;;5000506;28;20022;-76
2022/12/28 08:05:13;;;;;;;46.65;23.85;;;6.30;99.90;;;;;;5013977;28;20425;-76
2022/12/28 08:07:39;;;;;;;43.05;23.08;;;6.40;99.90;;;;;;5015597;28;20033;-76
2022/12/28 08:10:05;;;;;;;45.17;23.25;;;6.40;99.90;;;;;;5013919;28;20033;-76
2022/12/28 08:12:31;;;;;;;42.40;23.15;;;6.50;99.90;;;;;;5009138;28;20029;-76
2022/12/28 08:14:59;;;;;;;40.80;24.08;;;6.50;99.90;;;;;;4999116;28;20403;-76
2022/12/28 08:17:25;;;;;;;41.63;23.80;;;6.60;99.90;;;;;;5014343;28;20029;-77
2022/12/28 08:19:51;;;;;;;45.60;24.65;;;6.70;99.90;;;;;;5012312;28;20507;-77
2022/12/28 08:22:17;;;;;;;46.15;22.50;;;6.70;99.90;;;;;;5011899;28;20109;-74
2022/12/28 08:24:43;;;;;;;43.45;23.75;;;6.90;99.90;;;;;;5012710;28;20031;-76
2022/12/28 08:27:09;;;;;;;48.53;23.10;;;7.00;99.90;;;;;;5014316;28;20061;-75
2022/12/28 08:29:34;;;;;;;52.03;22.58;;;7.30;99.90;;;;;;4994135;28;20029;-76
2022/12/28 08:32:00;;;;;;;50.63;24.55;;;7.50;99.90;;;;;;5013173;28;20054;-76
2022/12/28 08:34:26;;;;;;;55.67;25.60;;;7.60;99.90;;;;;;5012935;28;20037;-75
2022/12/28 08:36:53;;;;;;;46.75;23.25;;;7.80;99.90;;;;;;5011937;28;20029;-75
2022/12/28 08:39:19;;;;;;;56.30;24.35;;;8.00;99.90;;;;;;4997362;28;20038;-75
2022/12/28 08:41:45;;;;;;;41.38;23.27;;;8.10;99.90;;;;;;4997268;28;20022;-76
2022/12/28 08:44:11;;;;;;;43.40;21.05;;;8.20;99.90;;;;;;5014895;28;20553;-76
2022/12/28 08:46:37;;;;;;;44.88;22.75;;;8.30;99.90;;;;;;5010733;28;20023;-76
2022/12/28 08:49:04;;;;;;;44.38;23.15;;;8.40;99.90;;;;;;4997603;28;20064;-77
2022/12/28 08:51:33;;;;;;;46.67;23.83;;;8.50;99.90;;;;;;5006928;28;20037;-77
2022/12/28 08:54:00;;;;;;;33.65;20.42;;;8.50;99.90;;;;;;4998415;28;20072;-77
2022/12/28 08:56:29;;;;;;;44.15;23.73;;;8.50;99.90;;;;;;4992034;28;20030;-76
2022/12/28 08:58:56;;;;;;;39.30;23.58;;;8.60;99.90;;;;;;4993266;28;20068;-76
2022/12/28 09:01:31;;;;;;;36.90;20.90;;;8.50;99.90;;;;;;4994983;28;20485;-77
2022/12/28 09:03:59;;;;;;;35.90;20.42;;;8.60;99.90;;;;;;5016819;28;20390;-76
2022/12/28 09:06:36;;;;;;;39.65;20.73;;;8.70;99.90;;;;;;5013425;28;20045;-76
2022/12/28 09:09:05;;;;;;;43.13;21.98;;;8.70;99.90;;;;;;5015249;28;20026;-77
2022/12/28 09:11:33;;;;;;;36.58;21.20;;;8.70;99.90;;;;;;5004826;28;20036;-77
2022/12/28 09:14:00;;;;;;;34.00;20.25;;;8.70;99.90;;;;;;4998356;28;20033;-76
2022/12/28 09:16:26;;;;;;;31.70;17.92;;;8.80;99.90;;;;;;5007742;28;20053;-76
2022/12/28 09:18:54;;;;;;;30.08;18.15;;;8.80;99.90;;;;;;5016849;28;20096;-75
2022/12/28 09:21:23;;;;;;;28.25;17.70;;;8.80;99.90;;;;;;5010754;28;20389;-76
2022/12/28 09:23:49;;;;;;;30.85;17.58;;;8.90;99.90;;;;;;4998818;28;20022;-77
2022/12/28 09:26:19;;;;;;;27.25;17.35;;;8.90;99.90;;;;;;5009258;28;20052;-74
2022/12/28 09:28:47;;;;;;;27.97;17.27;;;8.90;99.90;;;;;;5016902;28;20105;-77
2022/12/28 09:31:14;;;;;;;23.80;15.00;;;9.00;99.90;;;;;;4990602;28;20277;-75
2022/12/28 09:36:27;;;;;;;25.88;15.48;;;9.10;99.90;;;;;;5005301;28;20038;-76
2022/12/28 09:38:52;;;;;;;26.70;15.52;;;9.10;99.90;;;;;;4994462;28;20079;-74
2022/12/28 09:41:43;;;;;;;26.15;16.02;;;9.10;99.90;;;;;;5010136;28;20034;-75
2022/12/28 09:44:15;;;;;;;22.48;15.05;;;9.20;99.90;;;;;;4996978;28;20018;-77
2022/12/28 09:46:56;;;;;;;27.52;15.70;;;9.20;99.90;;;;;;5011948;28;20045;-77
2022/12/28 09:49:49;;;;;;;24.70;14.93;;;9.30;99.90;;;;;;4996265;28;20525;-76
2022/12/28 09:52:42;;;;;;;23.20;15.10;;;9.30;99.90;;;;;;5007120;28;20045;-76
2022/12/28 09:55:14;;;;;;;23.08;13.85;;;9.40;99.90;;;;;;5012204;28;20026;-76
2022/12/28 09:57:47;;;;;;;18.00;14.23;;;9.50;99.90;;;;;;5012336;28;20034;-77
2022/12/28 10:00:27;;;;;;;20.25;13.48;;;9.60;99.90;;;;;;4994552;28;20025;-75
2022/12/28 10:03:16;;;;;;;18.25;11.85;;;9.70;99.90;;;;;;4998877;28;20022;-75
2022/12/28 10:05:42;;;;;;;22.98;12.88;;;9.70;99.90;;;;;;4991573;28;20117;-77
2022/12/28 10:08:12;;;;;;;19.33;11.23;;;9.70;99.90;;;;;;4996018;28;20022;-75
2022/12/28 10:10:39;;;;;;;17.92;11.80;;;9.80;99.90;;;;;;5008759;28;20026;-75
2022/12/28 10:13:22;;;;;;;17.30;11.13;;;9.90;99.90;;;;;;5012228;28;20037;-76
2022/12/28 10:15:49;;;;;;;12.25;9.93;;;9.90;99.90;;;;;;4993330;28;20081;-73
2022/12/28 10:18:24;;;;;;;18.90;10.27;;;9.90;99.90;;;;;;5014797;28;20022;-75
2022/12/28 10:20:50;;;;;;;14.57;10.95;;;10.00;99.90;;;;;;5003242;28;20030;-76
2022/12/28 10:23:21;;;;;;;14.98;10.18;;;10.00;99.90;;;;;;5004491;28;20018;-75
2022/12/28 10:25:49;;;;;;;17.98;11.43;;;10.00;99.90;;;;;;4996235;28;20049;-75
2022/12/28 10:28:17;;;;;;;12.35;9.25;;;10.10;99.90;;;;;;5016046;28;20382;-76
2022/12/28 10:30:48;;;;;;;13.60;9.85;;;10.10;99.90;;;;;;5011703;28;20025;-75
2022/12/28 10:33:18;;;;;;;14.48;9.57;;;10.20;99.90;;;;;;4999113;28;20068;-77
2022/12/28 10:35:54;;;;;;;14.50;9.32;;;10.30;99.90;;;;;;5012967;28;20026;-76
2022/12/28 10:38:24;;;;;;;13.25;10.07;;;10.30;99.90;;;;;;5002176;28;20022;-75
2022/12/28 10:41:36;;;;;;;16.17;10.48;;;10.40;99.90;;;;;;5012700;28;20026;-75
2022/12/28 10:44:26;;;;;;;13.60;9.68;;;10.50;99.90;;;;;;4904122;29;20080;-77
2022/12/28 10:47:05;;;;;;;15.63;10.73;;;10.50;99.90;;;;;;5012523;28;20442;-77
2022/12/28 10:49:34;;;;;;;23.83;16.30;;;10.60;99.90;;;;;;5016300;28;20026;-75
2022/12/28 10:52:18;;;;;;;26.65;19.75;;;10.60;99.90;;;;;;5015245;28;20096;-76
2022/12/28 10:54:45;;;;;;;21.58;13.30;;;10.60;99.90;;;;;;4999467;28;20030;-76
2022/12/28 10:57:19;;;;;;;39.78;26.65;;;10.70;99.90;;;;;;5015766;28;20042;-75
2022/12/28 10:59:49;;;;;;;77.35;48.60;;;10.70;99.90;;;;;;5013736;28;20040;-76
2022/12/28 11:02:27;;;;;;;37.83;21.73;;;10.80;99.90;;;;;;5015389;28;20045;-75
2022/12/28 11:04:59;;;;;;;39.25;22.70;;;10.80;99.90;;;;;;5014580;28;20022;-76
2022/12/28 11:07:33;;;;;;;18.65;13.25;;;10.90;99.90;;;;;;5016203;28;20025;-74
2022/12/28 11:10:23;;;;;;;17.80;11.88;;;10.90;99.90;;;;;;5013463;28;20398;-74
2022/12/28 11:12:52;;;;;;;41.17;25.52;;;11.00;99.90;;;;;;5013420;28;20026;-76
2022/12/28 11:15:21;;;;;;;37.90;23.40;;;11.00;99.90;;;;;;5014103;28;20117;-74
2022/12/28 11:17:57;;;;;;;59.88;32.92;;;11.10;99.90;;;;;;4997501;28;20030;-77
2022/12/28 11:20:30;;;;;;;38.80;23.13;;;11.10;99.90;;;;;;5008689;28;20034;-77
2022/12/28 11:22:56;;;;;;;21.52;13.10;;;11.10;99.90;;;;;;5016444;28;20084;-77
2022/12/28 11:25:30;;;;;;;23.38;16.88;;;11.10;99.90;;;;;;4995179;28;20058;-77
2022/12/28 11:27:57;;;;;;;23.88;15.90;;;11.20;99.90;;;;;;4988680;28;20025;-75
2022/12/28 11:30:23;;;;;;;19.10;11.60;;;11.20;99.90;;;;;;5011396;28;20554;-78
2022/12/28 11:33:00;;;;;;;18.75;12.45;;;11.30;99.90;;;;;;4997591;28;20031;-74
2022/12/28 11:35:33;;;;;;;34.30;20.65;;;11.30;99.90;;;;;;5008838;28;20161;-75
2022/12/28 11:38:05;;;;;;;27.70;17.40;;;11.30;99.90;;;;;;5007557;28;20014;-74
2022/12/28 11:40:43;;;;;;;24.38;13.68;;;11.40;99.90;;;;;;4992071;28;20034;-75
2022/12/28 11:43:28;;;;;;;21.15;15.55;;;11.50;99.90;;;;;;5000439;28;20045;-74
2022/12/28 11:46:01;;;;;;;21.00;14.10;;;11.50;99.90;;;;;;4997820;28;20037;-75
2022/12/28 11:48:42;;;;;;;25.75;15.38;;;11.50;99.90;;;;;;5000665;28;20029;-74
2022/12/28 11:51:27;;;;;;;19.92;13.77;;;11.50;99.90;;;;;;4995306;28;20038;-74
2022/12/28 11:53:57;;;;;;;16.17;11.27;;;11.50;99.90;;;;;;5016945;28;20109;-75
2022/12/28 11:56:31;;;;;;;22.52;15.40;;;11.50;99.90;;;;;;5010313;28;20113;-75
2022/12/28 11:58:57;;;;;;;28.33;17.45;;;11.60;99.90;;;;;;5009220;28;20030;-74
2022/12/28 12:01:26;;;;;;;36.03;21.20;;;11.60;99.90;;;;;;5004945;28;20120;-74
2022/12/28 12:03:58;;;;;;;14.40;10.27;;;11.60;99.90;;;;;;5000616;28;20026;-74
2022/12/28 12:06:42;;;;;;;36.03;28.38;;;11.70;99.90;;;;;;5012485;28;20030;-75
2022/12/28 12:09:37;;;;;;;20.55;14.38;;;11.70;99.90;;;;;;5016936;28;20541;-75
2022/12/28 12:12:28;;;;;;;17.95;11.45;;;11.70;99.90;;;;;;5000237;28;20033;-74
2022/12/28 12:15:00;;;;;;;18.45;13.77;;;11.70;99.90;;;;;;5002557;28;20468;-75
2022/12/28 12:17:31;;;;;;;22.55;16.85;;;11.70;99.90;;;;;;5014885;28;20113;-75
2022/12/28 12:20:41;;;;;;;20.05;11.10;;;11.70;99.90;;;;;;4995133;28;20089;-74
2022/12/28 12:23:16;;;;;;;17.93;12.13;;;11.70;99.90;;;;;;4996960;28;20032;-73
2022/12/28 12:25:47;;;;;;;15.63;9.68;;;11.70;99.90;;;;;;4997225;28;20092;-74
2022/12/28 12:28:34;;;;;;;13.23;10.13;;;11.80;99.90;;;;;;4999033;28;20049;-73
2022/12/28 12:31:05;;;;;;;16.10;9.05;;;11.80;99.90;;;;;;4997000;28;20022;-73
2022/12/28 12:33:34;;;;;;;33.88;26.60;;;11.80;99.90;;;;;;5015746;28;20037;-74
2022/12/28 12:36:15;;;;;;;29.38;18.85;;;11.90;99.90;;;;;;5011108;28;20037;-74
2022/12/28 12:38:47;;;;;;;15.13;9.82;;;11.90;99.90;;;;;;5014344;28;20536;-74
2022/12/28 12:41:48;;;;;;;17.42;11.88;;;11.90;99.90;;;;;;4996157;28;20034;-73
2022/12/28 12:44:25;;;;;;;18.77;10.07;;;11.90;99.90;;;;;;5014377;28;20101;-74
2022/12/28 12:47:10;;;;;;;11.52;7.63;;;12.00;99.90;;;;;;4999069;28;20031;-74
2022/12/28 12:49:54;;;;;;;18.13;14.80;;;12.00;99.90;;;;;;5013131;28;20655;-73
2022/12/28 12:52:23;;;;;;;14.80;9.38;;;11.90;99.90;;;;;;4998177;28;20501;-73
2022/12/28 12:55:03;;;;;;;17.30;11.80;;;11.90;99.90;;;;;;4996098;28;20033;-74
2022/12/28 12:57:36;;;;;;;;;;;11.90;99.90;;;;;;4996087;28;20113;-74
2022/12/28 13:00:21;;;;;;;35.22;23.33;;;11.90;99.90;;;;;;5012025;28;19913;-73
2022/12/28 13:03:41;;;;;;;18.67;10.98;;;11.90;99.90;;;;;;4998036;28;20021;-74
2022/12/28 13:06:10;;;;;;;30.70;17.50;;;11.90;99.90;;;;;;4936617;29;20028;-76
2022/12/28 13:08:58;;;;;;;41.33;24.80;;;11.90;99.90;;;;;;4982962;28;20061;-74
2022/12/28 13:11:24;;;;;;;23.73;13.27;;;11.90;99.90;;;;;;5010703;28;20030;-75
2022/12/28 13:13:53;;;;;;;85.22;39.70;;;11.90;99.90;;;;;;5015851;28;20018;-74
2022/12/28 13:16:22;;;;;;;104.55;43.63;;;11.90;99.90;;;;;;4994763;28;20131;-73
2022/12/28 13:19:00;;;;;;;30.23;14.80;;;11.90;99.90;;;;;;5015998;28;20029;-73
2022/12/28 13:21:28;;;;;;;38.13;17.15;;;11.90;99.90;;;;;;5010755;28;20022;-73
2022/12/28 13:23:54;;;;;;;97.03;40.55;;;11.90;99.90;;;;;;5015754;28;20018;-76